createdAt,value
2023-04-13T00:03:02.611Z,1.27
2023-04-13T00:06:05.648Z,1.50
2023-04-13T00:09:08.638Z,1.58
2023-04-13T00:12:12.913Z,2.10
2023-04-13T00:15:17.637Z,1.60
2023-04-13T00:18:21.492Z,2.70
2023-04-13T00:21:26.072Z,4.53
2023-04-13T00:24:28.892Z,4.30
2023-04-13T00:27:31.646Z,1.95
2023-04-13T00:30:35.967Z,3.42
2023-04-13T00:33:42.787Z,3.25
2023-04-13T00:36:45.617Z,5.10
2023-04-13T00:39:52.164Z,5.70
2023-04-13T00:42:57.150Z,6.60
2023-04-13T00:46:01.301Z,6.03
2023-04-13T00:49:04.030Z,5.20
2023-04-13T00:52:10.236Z,4.22
2023-04-13T00:55:13.403Z,4.22
2023-04-13T00:58:16.257Z,3.78
2023-04-13T01:01:22.748Z,4.22
2023-04-13T01:04:31.295Z,2.67
2023-04-13T01:07:47.849Z,3.00
2023-04-13T01:10:54.887Z,3.80
2023-04-13T01:14:07.289Z,4.22
2023-04-13T01:17:15.670Z,3.42
2023-04-13T01:20:18.743Z,3.83
2023-04-13T01:23:44.260Z,3.90
2023-04-13T01:27:08.569Z,4.90
2023-04-13T01:30:11.635Z,4.95
2023-04-13T01:33:15.393Z,4.40
2023-04-13T01:36:18.294Z,4.60
2023-04-13T01:39:22.036Z,3.45
2023-04-13T01:42:34.396Z,2.88
2023-04-13T01:45:48.379Z,3.88
2023-04-13T01:48:54.958Z,15.13
2023-04-13T01:52:06.520Z,11.20
2023-04-13T01:55:12.720Z,8.63
2023-04-13T01:58:19.433Z,7.05
2023-04-13T02:01:30.192Z,3.30
2023-04-13T02:04:35.232Z,4.25
2023-04-13T02:07:40.830Z,5.05
2023-04-13T02:10:43.693Z,3.95
2023-04-13T02:13:46.649Z,3.40
2023-04-13T02:16:54.852Z,1.67
2023-04-13T02:19:58.215Z,3.03
2023-04-13T02:23:01.825Z,2.72
2023-04-13T02:26:07.221Z,1.48
2023-04-13T02:29:10.670Z,1.90
2023-04-13T02:32:13.981Z,2.08
2023-04-13T02:35:17.305Z,2.08
2023-04-13T02:38:20.322Z,2.42
2023-04-13T02:41:27.413Z,1.92
2023-04-13T02:44:30.639Z,1.48
2023-04-13T02:47:35.278Z,1.40
2023-04-13T02:50:39.645Z,6.32
2023-04-13T02:53:46.709Z,9.35
2023-04-13T02:56:49.684Z,3.78
2023-04-13T02:59:53.605Z,2.30
2023-04-13T03:02:59.194Z,2.20
2023-04-13T03:06:08.095Z,1.30
2023-04-13T03:09:21.930Z,1.58
2023-04-13T03:12:30.524Z,1.65
2023-04-13T03:15:33.261Z,1.63
2023-04-13T03:18:36.889Z,1.75
2023-04-13T03:21:41.818Z,1.55
2023-04-13T03:24:49.297Z,2.65
2023-04-13T03:27:59.334Z,1.95
2023-04-13T03:31:06.515Z,1.48
2023-04-13T03:34:12.635Z,1.77
2023-04-13T03:37:17.946Z,1.63
2023-04-13T03:40:21.184Z,2.65
2023-04-13T03:43:27.643Z,4.63
2023-04-13T03:46:41.637Z,4.75
2023-04-13T03:50:01.698Z,13.00
2023-04-13T03:53:06.663Z,7.63
2023-04-13T03:56:10.380Z,3.58
2023-04-13T03:59:14.291Z,34.42
2023-04-13T04:02:17.853Z,12.38
2023-04-13T04:05:22.203Z,4.03
2023-04-13T04:08:30.623Z,2.67
2023-04-13T04:11:38.106Z,1.67
2023-04-13T04:14:42.880Z,2.03
2023-04-13T04:17:53.514Z,1.42
2023-04-13T04:20:57.505Z,3.97
2023-04-13T04:24:03.260Z,19.13
2023-04-13T04:27:06.589Z,14.57
2023-04-13T04:30:11.221Z,8.35
2023-04-13T04:33:14.850Z,16.02
2023-04-13T04:36:18.825Z,9.40
2023-04-13T04:39:33.285Z,16.45
2023-04-13T04:42:45.665Z,24.27
2023-04-13T04:46:20.653Z,27.85
2023-04-13T04:49:29.093Z,19.42
2023-04-13T04:52:34.672Z,4.45
2023-04-13T04:55:40.165Z,2.58
2023-04-13T04:58:47.774Z,1.50
2023-04-13T05:01:53.793Z,1.42
2023-04-13T05:04:58.244Z,1.77
2023-04-13T05:08:01.936Z,1.50
2023-04-13T05:11:07.730Z,1.50
2023-04-13T05:14:12.457Z,1.58
2023-04-13T05:17:18.949Z,1.33
2023-04-13T05:20:22.295Z,1.40
2023-04-13T05:23:34.257Z,1.63
2023-04-13T05:26:43.319Z,1.38
2023-04-13T05:29:49.031Z,1.50
2023-04-13T05:32:57.267Z,6.40
2023-04-13T05:36:01.070Z,8.75
2023-04-13T05:39:05.182Z,3.05
2023-04-13T05:42:09.758Z,1.92
2023-04-13T05:45:18.469Z,2.08
2023-04-13T05:48:37.157Z,1.65
2023-04-13T05:51:44.280Z,1.77
2023-04-13T05:54:47.399Z,6.80
2023-04-13T05:57:51.904Z,2.30
2023-04-13T06:00:55.197Z,1.30
2023-04-13T06:04:06.385Z,1.48
2023-04-13T06:07:09.545Z,1.00
2023-04-13T06:10:17.289Z,1.77
2023-04-13T06:13:20.426Z,1.67
2023-04-13T06:16:24.588Z,2.25
2023-04-13T06:19:29.030Z,3.92
2023-04-13T06:22:32.359Z,2.88
2023-04-13T06:25:35.880Z,2.33
2023-04-13T06:28:40.141Z,3.28
2023-04-13T06:31:43.052Z,4.13
2023-04-13T06:34:51.614Z,10.05
2023-04-13T06:37:54.684Z,6.45
2023-04-13T06:41:07.430Z,4.47
2023-04-13T06:44:14.207Z,2.33
2023-04-13T06:47:43.527Z,1.98
2023-04-13T06:50:48.961Z,2.17
2023-04-13T06:53:53.919Z,1.90
2023-04-13T06:56:57.469Z,2.17
2023-04-13T07:00:00.617Z,1.30
2023-04-13T07:03:04.437Z,1.42
2023-04-13T07:06:09.120Z,1.27
2023-04-13T07:09:13.225Z,1.10
2023-04-13T07:12:16.527Z,1.45
2023-04-13T07:15:20.257Z,1.55
2023-04-13T07:18:23.107Z,1.77
2023-04-13T07:21:25.965Z,2.10
2023-04-13T07:27:41.557Z,2.10
2023-04-13T07:30:45.197Z,1.52
2023-04-13T07:33:49.157Z,2.38
2023-04-13T07:36:57.812Z,2.47
2023-04-13T07:40:01.376Z,1.95
2023-04-13T07:43:08.890Z,1.73
2023-04-13T07:46:15.976Z,2.17
2023-04-13T07:49:19.071Z,1.83
2023-04-13T07:52:22.814Z,1.88
2023-04-13T07:55:29.678Z,1.50
2023-04-13T07:58:32.742Z,1.85
2023-04-13T08:01:35.930Z,2.33
2023-04-13T08:04:40.415Z,2.13
2023-04-13T08:07:46.906Z,2.17
2023-04-13T08:10:51.663Z,6.18
2023-04-13T08:13:55.196Z,2.75
2023-04-13T08:16:58.726Z,2.40
2023-04-13T08:20:01.775Z,1.67
2023-04-13T08:23:05.598Z,1.42
2023-04-13T08:26:09.426Z,1.48
2023-04-13T08:29:14.867Z,6.05
2023-04-13T08:32:17.983Z,26.38
2023-04-13T08:35:23.176Z,14.30
2023-04-13T08:38:25.945Z,3.25
2023-04-13T08:41:31.157Z,2.70
2023-04-13T08:44:40.588Z,2.78
2023-04-13T08:47:47.693Z,2.17
2023-04-13T08:50:52.727Z,6.72
2023-04-13T08:53:57.223Z,1.60
2023-04-13T08:57:04.866Z,3.33
2023-04-13T09:00:12.844Z,2.13
2023-04-13T09:03:21.321Z,1.92
2023-04-13T09:06:35.347Z,1.30
2023-04-13T09:09:43.271Z,1.40
2023-04-13T09:12:48.040Z,1.60
2023-04-13T09:15:51.019Z,1.92
2023-04-13T09:18:59.844Z,1.83
2023-04-13T09:22:14.251Z,1.65
2023-04-13T09:25:24.315Z,1.83
2023-04-13T09:28:27.437Z,1.65
2023-04-13T09:31:35.056Z,2.22
2023-04-13T09:34:37.881Z,1.60
2023-04-13T09:37:44.046Z,2.63
2023-04-13T09:40:50.033Z,1.35
2023-04-13T09:43:52.727Z,2.10
2023-04-13T09:47:07.222Z,2.15
2023-04-13T09:50:28.715Z,1.92
2023-04-13T09:53:47.018Z,2.00
2023-04-13T09:56:56.065Z,1.73
2023-04-13T10:00:01.979Z,1.83
2023-04-13T10:03:15.806Z,1.58
2023-04-13T10:06:18.850Z,2.17
2023-04-13T10:09:21.747Z,1.77
2023-04-13T10:12:25.473Z,1.77
2023-04-13T10:15:40.866Z,2.20
2023-04-13T10:18:49.294Z,1.80
2023-04-13T10:21:52.882Z,1.83
2023-04-13T10:24:55.670Z,2.38
2023-04-13T10:27:59.900Z,2.65
2023-04-13T10:31:06.198Z,2.75
2023-04-13T10:34:10.877Z,2.08
2023-04-13T10:37:19.890Z,2.35
2023-04-13T10:40:22.989Z,1.50
2023-04-13T10:43:30.327Z,1.77
2023-04-13T10:46:36.797Z,3.35
2023-04-13T10:49:39.899Z,7.90
2023-04-13T10:52:42.581Z,2.90
2023-04-13T10:55:45.524Z,2.80
2023-04-13T10:58:54.936Z,1.67
2023-04-13T11:01:58.909Z,2.08
2023-04-13T11:05:02.420Z,6.05
2023-04-13T11:08:06.168Z,5.82
2023-04-13T11:11:14.862Z,2.90
2023-04-13T11:14:22.000Z,2.28
2023-04-13T11:17:25.236Z,1.83
2023-04-13T11:20:38.754Z,2.17
2023-04-13T11:23:41.719Z,1.90
2023-04-13T11:26:44.883Z,2.28
2023-04-13T11:30:00.867Z,2.03
2023-04-13T11:33:04.151Z,1.80
2023-04-13T11:36:08.215Z,2.38
2023-04-13T11:39:11.233Z,1.45
2023-04-13T11:42:14.120Z,2.08
2023-04-13T11:45:18.996Z,2.70
2023-04-13T11:48:24.565Z,3.20
2023-04-13T11:51:27.395Z,3.35
2023-04-13T11:54:31.362Z,3.63
2023-04-13T11:57:35.094Z,4.20
2023-04-13T12:00:41.644Z,3.63
2023-04-13T12:03:57.578Z,4.30
2023-04-13T12:07:17.649Z,4.18
2023-04-13T12:10:40.528Z,4.32
2023-04-13T12:14:06.519Z,4.15
2023-04-13T12:20:21.001Z,4.93
2023-04-13T12:23:25.711Z,4.50
2023-04-13T12:27:16.087Z,5.30
2023-04-13T12:30:02.918Z,5.00
2023-04-13T12:33:05.692Z,4.45
2023-04-13T12:36:11.657Z,5.35
2023-04-13T12:39:14.781Z,5.40
2023-04-13T12:42:17.735Z,5.53
2023-04-13T12:45:20.526Z,4.90
2023-04-13T12:48:23.330Z,4.40
2023-04-13T12:51:27.025Z,4.75
2023-04-13T12:54:31.228Z,4.10
2023-04-13T12:57:33.921Z,4.80
2023-04-13T13:00:36.731Z,4.93
2023-04-13T13:03:39.591Z,4.57
2023-04-13T13:06:42.864Z,3.95
2023-04-13T13:09:45.744Z,4.70
2023-04-13T13:12:48.499Z,4.63
2023-04-13T13:15:52.167Z,5.05
2023-04-13T13:18:55.773Z,5.15
2023-04-13T13:22:00.498Z,4.38
2023-04-13T13:25:04.648Z,5.70
2023-04-13T13:28:14.841Z,4.72
2023-04-13T13:31:18.278Z,4.75
2023-04-13T13:34:21.302Z,4.85
2023-04-13T13:37:24.510Z,4.40
2023-04-13T13:40:27.310Z,4.97
2023-04-13T13:43:30.163Z,4.45
2023-04-13T13:46:33.396Z,4.43
2023-04-13T13:52:51.826Z,4.60
2023-04-13T13:56:06.728Z,4.43
2023-04-13T13:59:09.716Z,4.30
2023-04-13T14:02:13.116Z,4.95
2023-04-13T14:05:16.149Z,4.40
2023-04-13T14:08:19.153Z,4.35
2023-04-13T14:11:22.828Z,4.65
2023-04-13T14:14:25.995Z,5.05
2023-04-13T14:17:28.981Z,5.93
2023-04-13T14:20:32.722Z,5.30
2023-04-13T14:23:37.824Z,5.45
2023-04-13T14:26:42.075Z,5.97
2023-04-13T14:29:47.033Z,5.25
2023-04-13T14:32:51.520Z,5.95
2023-04-13T14:35:54.433Z,4.97
2023-04-13T14:39:00.879Z,4.47
2023-04-13T14:42:04.115Z,4.80
2023-04-13T14:45:13.022Z,5.10
2023-04-13T14:48:15.887Z,4.95
2023-04-13T14:51:18.858Z,5.85
2023-04-13T14:54:21.764Z,5.35
2023-04-13T14:57:24.709Z,5.45
2023-04-13T15:00:39.321Z,5.30
2023-04-13T15:03:42.507Z,5.55
2023-04-13T15:06:47.929Z,4.88
2023-04-13T15:09:50.906Z,4.65
2023-04-13T15:12:53.612Z,4.82
2023-04-13T15:15:57.171Z,4.22
2023-04-13T15:19:00.230Z,4.50
2023-04-13T15:22:03.357Z,4.07
2023-04-13T15:25:06.779Z,4.28
2023-04-13T15:28:10.841Z,4.65
2023-04-13T15:31:13.825Z,4.85
2023-04-13T15:34:16.960Z,14.25
2023-04-13T15:37:19.846Z,8.50
2023-04-13T15:40:25.482Z,3.88
2023-04-13T15:43:28.508Z,3.90
2023-04-13T15:46:32.856Z,3.60
2023-04-13T15:49:36.047Z,4.78
2023-04-13T15:52:41.673Z,5.03
2023-04-13T15:55:44.689Z,4.88
2023-04-13T15:58:47.523Z,6.18
2023-04-13T16:01:50.485Z,6.68
2023-04-13T16:04:54.437Z,6.45
2023-04-13T16:07:57.636Z,6.78
2023-04-13T16:11:01.761Z,7.15
2023-04-13T16:14:07.785Z,6.85
2023-04-13T16:17:11.539Z,6.65
2023-04-13T16:20:14.568Z,7.50
2023-04-13T16:23:18.993Z,5.95
2023-04-13T16:26:22.689Z,6.00
2023-04-13T16:29:27.003Z,4.97
2023-04-13T16:32:29.755Z,4.88
2023-04-13T16:35:32.724Z,4.97
2023-04-13T16:38:35.701Z,5.57
2023-04-13T16:41:38.529Z,7.43
2023-04-13T16:44:41.389Z,7.35
2023-04-13T16:47:44.336Z,8.52
2023-04-13T16:50:47.369Z,8.65
2023-04-13T16:53:50.537Z,10.00
2023-04-13T16:56:53.887Z,11.02
2023-04-13T17:00:00.647Z,10.90
2023-04-13T17:03:04.028Z,10.82
2023-04-13T17:06:07.652Z,10.55
2023-04-13T17:09:10.509Z,11.48
2023-04-13T17:12:13.693Z,13.30
2023-04-13T17:15:16.655Z,14.45
2023-04-13T17:18:19.829Z,14.60
2023-04-13T17:21:23.543Z,13.00
2023-04-13T17:24:26.404Z,9.98
2023-04-13T17:27:29.277Z,9.68
2023-04-13T17:30:32.575Z,9.60
2023-04-13T17:33:38.266Z,9.38
2023-04-13T17:36:41.388Z,10.45
2023-04-13T17:39:48.221Z,9.43
2023-04-13T17:42:50.990Z,9.35
2023-04-13T17:45:54.013Z,8.88
2023-04-13T17:48:57.404Z,8.75
2023-04-13T17:52:01.080Z,9.38
2023-04-13T17:55:04.357Z,7.85
2023-04-13T17:58:07.439Z,8.63
2023-04-13T18:01:11.768Z,7.22
2023-04-13T18:04:15.292Z,7.15
2023-04-13T18:07:18.778Z,7.75
2023-04-13T18:10:21.622Z,18.15
2023-04-13T18:13:24.893Z,19.52
2023-04-13T18:16:28.350Z,14.38
2023-04-13T18:19:32.952Z,8.00
2023-04-13T18:22:35.994Z,7.70
2023-04-13T18:25:39.109Z,7.10
2023-04-13T18:28:42.219Z,6.75
2023-04-13T18:31:45.072Z,8.15
2023-04-13T18:34:48.016Z,7.90
2023-04-13T18:37:50.961Z,8.13
2023-04-13T18:40:53.905Z,6.72
2023-04-13T18:43:56.723Z,7.20
2023-04-13T18:46:59.660Z,5.80
2023-04-13T18:50:02.604Z,6.20
2023-04-13T18:53:06.213Z,5.43
2023-04-13T18:56:09.112Z,4.90
2023-04-13T18:59:12.232Z,3.20
2023-04-13T19:02:15.627Z,4.72
2023-04-13T19:05:19.519Z,4.43
2023-04-13T19:08:22.271Z,4.47
2023-04-13T19:11:28.005Z,6.00
2023-04-13T19:14:30.986Z,5.38
2023-04-13T19:17:34.566Z,8.48
2023-04-13T19:20:37.356Z,9.13
2023-04-13T19:23:40.593Z,5.85
2023-04-13T19:26:44.027Z,4.97
2023-04-13T19:29:47.078Z,5.72
2023-04-13T19:32:50.656Z,5.70
2023-04-13T19:35:53.732Z,11.48
2023-04-13T19:38:56.813Z,12.90
2023-04-13T19:41:59.535Z,8.90
2023-04-13T19:45:03.457Z,5.47
2023-04-13T19:48:06.968Z,4.88
2023-04-13T19:51:09.903Z,4.90
2023-04-13T19:54:12.789Z,5.55
2023-04-13T19:57:15.564Z,5.10
2023-04-13T20:00:19.432Z,5.25
2023-04-13T20:03:22.312Z,5.32
2023-04-13T20:06:25.894Z,5.60
2023-04-13T20:09:29.257Z,5.88
2023-04-13T20:12:32.111Z,4.38
2023-04-13T20:15:35.677Z,3.53
2023-04-13T20:18:38.746Z,4.97
2023-04-13T20:21:42.385Z,11.43
2023-04-13T20:24:45.231Z,7.15
2023-04-13T20:27:48.057Z,5.13
2023-04-13T20:30:50.957Z,7.40
2023-04-13T20:33:53.612Z,8.30
2023-04-13T20:36:59.280Z,8.70
2023-04-13T20:40:03.133Z,14.57
2023-04-13T20:43:06.545Z,20.60
2023-04-13T20:46:10.395Z,42.38
2023-04-13T20:49:13.946Z,17.27
2023-04-13T20:52:18.496Z,10.65
2023-04-13T20:55:24.950Z,8.48
2023-04-13T20:58:28.942Z,14.30
2023-04-13T21:01:32.380Z,6.53
2023-04-13T21:04:35.132Z,7.03
2023-04-13T21:07:38.413Z,5.53
2023-04-13T21:10:41.260Z,6.55
2023-04-13T21:13:44.223Z,10.02
2023-04-13T21:16:46.978Z,10.15
2023-04-13T21:19:49.841Z,7.05
2023-04-13T21:22:52.635Z,7.82
2023-04-13T21:25:55.475Z,6.70
2023-04-13T21:28:58.138Z,7.10
2023-04-13T21:32:02.592Z,8.65
2023-04-13T21:35:06.074Z,7.72
2023-04-13T21:38:09.162Z,6.65
2023-04-13T21:41:19.884Z,6.07
2023-04-13T21:44:29.960Z,7.20
2023-04-13T21:47:35.354Z,6.40
2023-04-13T21:50:38.060Z,5.97
2023-04-13T21:53:40.793Z,6.18
2023-04-13T21:56:43.592Z,6.80
2023-04-13T21:59:46.289Z,6.05
2023-04-13T22:02:49.772Z,5.35
2023-04-13T22:05:52.509Z,6.28
2023-04-13T22:08:55.378Z,5.20
2023-04-13T22:11:58.280Z,5.38
2023-04-13T22:15:00.959Z,5.38
2023-04-13T22:18:04.017Z,5.38
2023-04-13T22:21:07.296Z,4.97
2023-04-13T22:24:10.030Z,5.30
2023-04-13T22:27:12.738Z,5.28
2023-04-13T22:30:15.613Z,4.65
2023-04-13T22:33:19.074Z,4.78
2023-04-13T22:36:21.948Z,3.53
2023-04-13T22:39:24.554Z,6.55
2023-04-13T22:42:27.808Z,5.53
2023-04-13T22:45:30.532Z,5.45
2023-04-13T22:48:33.246Z,5.13
2023-04-13T22:51:42.177Z,5.68
2023-04-13T22:54:46.668Z,6.07
2023-04-13T22:57:49.379Z,6.70
2023-04-13T23:00:52.349Z,9.55
2023-04-13T23:03:55.938Z,5.60
2023-04-13T23:06:58.866Z,6.55
2023-04-13T23:10:01.533Z,9.32
2023-04-13T23:13:05.018Z,5.80
2023-04-13T23:16:08.451Z,4.05
2023-04-13T23:19:11.203Z,4.22
2023-04-13T23:22:14.006Z,4.75
2023-04-13T23:25:16.742Z,4.30
2023-04-13T23:28:19.467Z,4.18
2023-04-13T23:31:22.278Z,3.25
2023-04-13T23:34:25.011Z,3.72
2023-04-13T23:37:27.882Z,3.53
2023-04-13T23:40:30.997Z,4.88
2023-04-13T23:43:33.767Z,4.38
2023-04-13T23:46:36.712Z,4.28
2023-04-13T23:49:39.419Z,4.35
2023-04-13T23:52:42.589Z,3.90
2023-04-13T23:55:45.258Z,5.50
2023-04-13T23:58:47.985Z,6.05
